createdAt,value
2018-10-21T00:01:25.458Z,99.90
2018-10-21T00:03:53.582Z,99.90
2018-10-21T00:06:21.758Z,99.90
2018-10-21T00:08:49.932Z,99.90
2018-10-21T00:11:18.093Z,99.90
2018-10-21T00:13:46.228Z,99.90
2018-10-21T00:16:14.386Z,99.90
2018-10-21T00:18:42.551Z,99.90
2018-10-21T00:21:10.798Z,99.90
2018-10-21T00:23:38.873Z,99.90
2018-10-21T00:26:07.062Z,99.90
2018-10-21T00:28:35.171Z,99.90
2018-10-21T00:31:03.362Z,99.90
2018-10-21T00:33:31.557Z,99.90
2018-10-21T00:35:59.728Z,99.90
2018-10-21T00:38:27.880Z,99.90
2018-10-21T00:40:56.034Z,99.90
2018-10-21T00:43:24.220Z,99.90
2018-10-21T00:45:52.346Z,99.90
2018-10-21T00:48:20.522Z,99.90
2018-10-21T00:50:48.698Z,99.90
2018-10-21T00:53:16.858Z,99.90
2018-10-21T00:55:45.057Z,99.90
2018-10-21T00:58:13.226Z,99.90
2018-10-21T01:00:41.392Z,99.90
2018-10-21T01:03:09.621Z,99.90
2018-10-21T01:05:37.761Z,99.90
2018-10-21T01:08:05.914Z,99.90
2018-10-21T01:10:34.096Z,99.90
2018-10-21T01:13:02.259Z,99.90
2018-10-21T01:15:30.457Z,99.90
2018-10-21T01:17:58.606Z,99.90
2018-10-21T01:20:26.779Z,99.90
2018-10-21T01:22:54.959Z,99.90
2018-10-21T01:25:29.283Z,99.90
2018-10-21T01:27:57.460Z,99.90
2018-10-21T01:30:25.663Z,99.90
2018-10-21T01:32:53.856Z,99.90
2018-10-21T01:35:22.035Z,99.90
2018-10-21T01:37:50.306Z,99.90
2018-10-21T01:40:43.705Z,99.90
2018-10-21T01:43:13.407Z,99.90
2018-10-21T01:45:41.638Z,99.90
2018-10-21T01:48:10.978Z,99.90
2018-10-21T01:50:39.159Z,99.90
2018-10-21T01:53:08.458Z,99.90
2018-10-21T01:55:36.688Z,99.90
2018-10-21T01:58:05.474Z,99.90
2018-10-21T02:00:34.086Z,99.90
2018-10-21T02:03:02.713Z,99.90
2018-10-21T02:05:31.173Z,99.90
2018-10-21T02:07:59.325Z,99.90
2018-10-21T02:10:27.559Z,99.90
2018-10-21T02:12:55.988Z,99.90
2018-10-21T02:15:24.367Z,99.90
2018-10-21T02:17:52.541Z,99.90
2018-10-21T02:20:21.424Z,99.90
2018-10-21T02:22:50.132Z,99.90
2018-10-21T02:25:18.280Z,99.90
2018-10-21T02:27:47.181Z,99.90
2018-10-21T02:30:17.202Z,99.90
2018-10-21T02:32:46.202Z,99.90
2018-10-21T02:35:14.870Z,99.90
2018-10-21T02:37:43.470Z,99.90
2018-10-21T02:41:27.849Z,99.90
2018-10-21T02:43:55.984Z,99.90
2018-10-21T02:46:24.686Z,99.90
2018-10-21T02:48:53.878Z,99.90
2018-10-21T02:51:22.097Z,99.90
2018-10-21T02:53:50.239Z,99.90
2018-10-21T02:56:18.378Z,99.90
2018-10-21T02:58:46.531Z,99.90
2018-10-21T03:01:14.683Z,99.90
2018-10-21T03:03:42.843Z,99.90
2018-10-21T03:06:10.998Z,99.90
2018-10-21T03:08:39.569Z,99.90
2018-10-21T03:11:07.822Z,99.90
2018-10-21T03:13:36.026Z,99.90
2018-10-21T03:16:04.613Z,99.90
2018-10-21T03:18:32.846Z,99.90
2018-10-21T03:21:01.720Z,99.90
2018-10-21T03:23:29.803Z,99.90
2018-10-21T03:25:58.318Z,99.90
2018-10-21T03:28:26.479Z,99.90
2018-10-21T03:30:54.717Z,99.90
2018-10-21T03:33:23.014Z,99.90
2018-10-21T03:35:51.055Z,99.90
2018-10-21T03:38:19.217Z,99.90
2018-10-21T03:40:47.371Z,99.90
2018-10-21T03:43:15.510Z,99.90
2018-10-21T03:45:43.656Z,99.90
2018-10-21T03:48:11.812Z,99.90
2018-10-21T03:50:40.011Z,99.90
2018-10-21T03:53:08.150Z,99.90
2018-10-21T03:55:38.047Z,99.90
2018-10-21T03:58:06.269Z,99.90
2018-10-21T04:00:34.428Z,99.90
2018-10-21T04:03:02.939Z,99.90
2018-10-21T04:05:31.099Z,99.90
2018-10-21T04:07:59.238Z,99.90
2018-10-21T04:10:27.371Z,99.90
2018-10-21T04:12:55.784Z,99.90
2018-10-21T04:15:23.923Z,99.90
2018-10-21T04:17:52.327Z,99.90
2018-10-21T04:20:20.491Z,99.90
2018-10-21T04:23:05.354Z,99.90
2018-10-21T04:25:34.662Z,99.90
2018-10-21T04:28:03.672Z,99.90
2018-10-21T04:30:32.959Z,99.90
2018-10-21T04:34:09.999Z,99.90
2018-10-21T04:36:38.141Z,99.90
2018-10-21T04:40:16.313Z,99.90
2018-10-21T04:42:45.025Z,99.90
2018-10-21T04:45:14.441Z,99.90
2018-10-21T04:47:42.597Z,99.90
2018-10-21T04:50:11.478Z,99.90
2018-10-21T04:52:39.712Z,99.90
2018-10-21T04:55:10.607Z,99.90
2018-10-21T04:57:40.002Z,99.90
2018-10-21T05:00:10.839Z,99.90
2018-10-21T05:02:38.976Z,99.90
2018-10-21T05:05:07.922Z,99.90
2018-10-21T05:07:36.405Z,99.90
2018-10-21T05:10:07.146Z,99.90
2018-10-21T05:12:35.242Z,99.90
2018-10-21T05:15:03.394Z,99.90
2018-10-21T05:17:31.516Z,99.90
2018-10-21T05:19:59.664Z,99.90
2018-10-21T05:22:27.789Z,99.90
2018-10-21T05:24:56.093Z,99.90
2018-10-21T05:27:24.218Z,99.90
2018-10-21T05:29:52.387Z,99.90
2018-10-21T05:32:20.528Z,99.90
2018-10-21T05:34:48.681Z,99.90
2018-10-21T05:37:16.826Z,99.90
2018-10-21T05:39:44.983Z,99.90
2018-10-21T05:42:13.122Z,99.90
2018-10-21T05:44:41.283Z,99.90
2018-10-21T05:47:09.446Z,99.90
2018-10-21T05:49:37.587Z,99.90
2018-10-21T05:52:06.040Z,99.90
2018-10-21T05:54:38.394Z,99.90
2018-10-21T05:57:06.551Z,99.90
2018-10-21T05:59:34.706Z,99.90
2018-10-21T06:02:02.902Z,99.90
2018-10-21T06:04:31.094Z,99.90
2018-10-21T06:06:59.242Z,99.90
2018-10-21T06:09:27.402Z,99.90
2018-10-21T06:11:55.564Z,99.90
2018-10-21T06:14:23.725Z,99.90
2018-10-21T06:16:57.238Z,99.90
2018-10-21T06:19:31.961Z,99.90
2018-10-21T06:22:00.129Z,99.90
2018-10-21T06:24:28.305Z,99.90
2018-10-21T06:26:56.483Z,99.90
2018-10-21T06:29:24.649Z,99.90
2018-10-21T06:31:52.839Z,99.90
2018-10-21T06:34:20.996Z,99.90
2018-10-21T06:36:49.261Z,99.90
2018-10-21T06:39:17.382Z,99.90
2018-10-21T06:41:45.513Z,99.90
2018-10-21T06:44:13.672Z,99.90
2018-10-21T06:46:41.937Z,99.90
2018-10-21T06:49:10.129Z,99.90
2018-10-21T06:51:38.289Z,99.90
2018-10-21T06:54:06.454Z,99.90
2018-10-21T06:56:34.822Z,99.90
2018-10-21T06:59:02.793Z,99.90
2018-10-21T07:01:32.335Z,99.90
2018-10-21T07:04:00.506Z,99.90
2018-10-21T07:06:29.519Z,99.90
2018-10-21T07:09:02.045Z,99.90
2018-10-21T07:11:30.175Z,99.90
2018-10-21T07:13:58.411Z,99.90
2018-10-21T07:16:26.660Z,99.90
2018-10-21T07:18:54.731Z,99.90
2018-10-21T07:21:22.877Z,99.90
2018-10-21T07:23:51.043Z,99.90
2018-10-21T07:26:19.205Z,99.90
2018-10-21T07:28:47.366Z,99.90
2018-10-21T07:31:15.552Z,99.90
2018-10-21T07:33:43.721Z,99.90
2018-10-21T07:36:11.906Z,99.90
2018-10-21T07:38:40.028Z,99.90
2018-10-21T07:41:08.200Z,99.90
2018-10-21T07:43:36.365Z,99.90
2018-10-21T07:46:04.560Z,99.90
2018-10-21T07:48:32.727Z,99.90
2018-10-21T07:51:00.910Z,99.90
2018-10-21T07:53:29.066Z,99.90
2018-10-21T07:55:57.211Z,99.90
2018-10-21T07:58:25.363Z,99.90
2018-10-21T08:00:53.548Z,99.90
2018-10-21T08:03:21.687Z,99.90
2018-10-21T08:06:01.265Z,99.90
2018-10-21T08:08:29.433Z,99.90
2018-10-21T08:10:57.592Z,99.90
2018-10-21T08:13:26.999Z,99.90
2018-10-21T08:15:55.166Z,99.90
2018-10-21T08:18:23.330Z,99.90
2018-10-21T08:20:51.851Z,99.90
2018-10-21T08:23:20.332Z,99.90
2018-10-21T08:25:49.729Z,99.90
2018-10-21T08:28:17.958Z,99.90
2018-10-21T08:30:46.077Z,99.90
2018-10-21T08:33:14.226Z,99.90
2018-10-21T08:35:42.455Z,99.90
2018-10-21T08:38:10.654Z,99.90
2018-10-21T08:40:38.815Z,99.90
2018-10-21T08:43:06.975Z,99.90
2018-10-21T08:45:35.127Z,99.90
2018-10-21T08:48:03.290Z,99.90
2018-10-21T08:50:31.459Z,99.90
2018-10-21T08:52:59.613Z,99.90
2018-10-21T08:55:27.771Z,99.90
2018-10-21T08:57:55.993Z,99.90
2018-10-21T09:00:24.127Z,99.90
2018-10-21T09:02:52.297Z,99.90
2018-10-21T09:05:20.494Z,99.90
2018-10-21T09:07:48.686Z,99.90
2018-10-21T09:10:17.639Z,99.90
2018-10-21T09:12:45.731Z,99.90
2018-10-21T09:15:16.491Z,99.90
2018-10-21T09:17:44.549Z,99.90
2018-10-21T09:20:15.267Z,99.90
2018-10-21T09:22:43.447Z,99.90
2018-10-21T09:25:12.586Z,99.90
2018-10-21T09:27:41.525Z,99.90
2018-10-21T09:30:12.285Z,99.90
2018-10-21T09:32:40.477Z,99.90
2018-10-21T09:35:10.670Z,99.90
2018-10-21T09:37:39.349Z,99.90
2018-10-21T09:40:09.550Z,99.90
2018-10-21T09:42:37.618Z,99.90
2018-10-21T09:45:06.544Z,99.90
2018-10-21T09:47:34.699Z,99.90
2018-10-21T09:50:02.958Z,99.90
2018-10-21T09:52:31.044Z,99.90
2018-10-21T09:54:59.260Z,99.90
2018-10-21T09:57:27.363Z,99.90
2018-10-21T09:59:55.547Z,99.90
2018-10-21T10:02:29.203Z,99.90
2018-10-21T10:04:57.371Z,99.90
2018-10-21T10:07:25.740Z,99.10
2018-10-21T10:09:53.969Z,98.50
2018-10-21T10:12:22.099Z,97.90
2018-10-21T10:14:50.257Z,96.90
2018-10-21T10:17:18.410Z,96.90
2018-10-21T10:19:46.565Z,96.10
2018-10-21T10:22:14.868Z,96.40
2018-10-21T10:24:42.898Z,95.80
2018-10-21T10:27:11.087Z,94.90
2018-10-21T10:29:39.265Z,94.50
2018-10-21T10:32:07.519Z,94.60
2018-10-21T10:34:35.688Z,95.70
2018-10-21T10:37:03.900Z,94.70
2018-10-21T10:39:32.040Z,94.30
2018-10-21T10:42:00.346Z,94.30
2018-10-21T10:44:28.439Z,93.40
2018-10-21T10:46:56.639Z,93.50
2018-10-21T10:49:24.797Z,92.50
2018-10-21T10:51:52.968Z,92.50
2018-10-21T10:54:21.155Z,91.40
2018-10-21T10:56:49.344Z,92.00
2018-10-21T10:59:17.495Z,91.70
2018-10-21T11:01:45.666Z,91.20
2018-10-21T11:04:13.929Z,90.10
2018-10-21T11:06:42.003Z,90.90
2018-10-21T11:09:10.998Z,90.00
2018-10-21T11:11:39.296Z,88.50
2018-10-21T11:14:07.502Z,87.20
2018-10-21T11:16:35.788Z,87.70
2018-10-21T11:19:04.067Z,86.20
2018-10-21T11:21:32.232Z,86.10
2018-10-21T11:24:00.447Z,85.00
2018-10-21T11:26:28.650Z,85.00
2018-10-21T11:28:57.004Z,84.80
2018-10-21T11:31:25.177Z,83.80
2018-10-21T11:33:53.350Z,82.10
2018-10-21T11:36:21.544Z,81.00
2018-10-21T11:38:49.755Z,78.90
2018-10-21T11:41:17.893Z,76.70
2018-10-21T11:43:46.051Z,75.60
2018-10-21T11:46:14.308Z,75.70
2018-10-21T11:48:42.385Z,73.00
2018-10-21T11:51:10.632Z,72.70
2018-10-21T11:53:38.795Z,72.70
2018-10-21T11:56:06.979Z,71.80
2018-10-21T11:58:35.179Z,71.90
2018-10-21T12:01:03.407Z,68.90
2018-10-21T12:03:31.530Z,69.70
2018-10-21T12:05:59.695Z,69.40
2018-10-21T12:08:27.883Z,70.00
2018-10-21T12:10:56.058Z,67.40
2018-10-21T12:13:24.292Z,66.60
2018-10-21T12:15:52.495Z,67.50
2018-10-21T12:18:20.671Z,65.60
2018-10-21T12:20:48.844Z,65.30
2018-10-21T12:23:17.052Z,63.10
2018-10-21T12:25:45.262Z,63.20
2018-10-21T12:28:13.414Z,63.80
2018-10-21T12:30:41.631Z,65.50
2018-10-21T12:33:09.853Z,63.40
2018-10-21T12:35:38.052Z,63.80
2018-10-21T12:38:06.253Z,60.20
2018-10-21T12:40:34.451Z,61.40
2018-10-21T12:43:02.687Z,61.30
2018-10-21T12:45:30.845Z,61.90
2018-10-21T12:47:59.002Z,60.70
2018-10-21T12:50:27.167Z,60.60
2018-10-21T12:52:55.350Z,60.40
2018-10-21T12:55:23.476Z,59.40
2018-10-21T12:57:51.674Z,58.40
2018-10-21T13:00:19.842Z,58.70
2018-10-21T13:02:48.003Z,59.50
2018-10-21T13:05:16.230Z,59.60
2018-10-21T13:07:44.431Z,59.40
2018-10-21T13:10:12.630Z,59.00
2018-10-21T13:12:47.469Z,59.20
2018-10-21T13:15:15.606Z,59.50
2018-10-21T13:17:43.786Z,58.20
2018-10-21T13:20:11.953Z,59.50
2018-10-21T13:22:40.122Z,57.60
2018-10-21T13:25:08.323Z,58.70
2018-10-21T13:27:36.437Z,56.30
2018-10-21T13:30:05.060Z,57.40
2018-10-21T13:32:33.229Z,55.30
2018-10-21T13:35:01.415Z,56.80
2018-10-21T13:37:29.567Z,60.00
2018-10-21T13:39:57.766Z,59.50
2018-10-21T13:42:25.972Z,55.40
2018-10-21T13:44:54.176Z,53.20
2018-10-21T13:47:22.455Z,52.80
2018-10-21T13:49:50.617Z,52.90
2018-10-21T13:52:18.888Z,52.40
2018-10-21T13:54:47.070Z,52.70
2018-10-21T13:57:15.431Z,52.50
2018-10-21T13:59:43.639Z,55.00
2018-10-21T14:02:11.834Z,53.90
2018-10-21T14:04:39.999Z,54.40
2018-10-21T14:07:08.206Z,52.50
2018-10-21T14:09:36.353Z,53.60
2018-10-21T14:12:04.608Z,52.50
2018-10-21T14:14:32.846Z,52.40
2018-10-21T14:17:01.044Z,53.70
2018-10-21T14:19:29.247Z,53.00
2018-10-21T14:21:57.446Z,51.90
2018-10-21T14:24:25.587Z,53.30
2018-10-21T14:26:53.776Z,52.80
2018-10-21T14:29:21.977Z,52.00
2018-10-21T14:31:50.126Z,51.10
2018-10-21T14:34:18.303Z,52.10
2018-10-21T14:36:46.478Z,50.30
2018-10-21T14:39:14.721Z,51.30
2018-10-21T14:41:42.841Z,51.50
2018-10-21T14:44:11.007Z,53.00
2018-10-21T14:46:39.741Z,51.20
2018-10-21T14:49:09.011Z,52.20
2018-10-21T14:51:37.186Z,51.50
2018-10-21T14:54:05.598Z,52.70
2018-10-21T14:56:33.697Z,52.40
2018-10-21T14:59:01.885Z,53.30
2018-10-21T15:01:30.063Z,52.30
2018-10-21T15:03:58.235Z,52.90
2018-10-21T15:06:26.410Z,53.40
2018-10-21T15:08:54.653Z,54.50
2018-10-21T15:11:22.882Z,53.80
2018-10-21T15:13:51.126Z,55.30
2018-10-21T15:16:19.417Z,55.00
2018-10-21T15:18:47.522Z,55.80
2018-10-21T15:21:15.709Z,55.40
2018-10-21T15:23:43.924Z,55.00
2018-10-21T15:26:12.228Z,56.20
2018-10-21T15:28:40.350Z,56.10
2018-10-21T15:31:08.503Z,57.30
2018-10-21T15:33:36.703Z,57.60
2018-10-21T15:36:05.950Z,57.80
2018-10-21T15:38:34.223Z,57.10
2018-10-21T15:41:02.401Z,56.90
2018-10-21T15:43:30.560Z,56.80
2018-10-21T15:45:59.751Z,57.50
2018-10-21T15:48:27.900Z,57.90
2018-10-21T15:50:56.074Z,58.60
2018-10-21T15:53:24.280Z,59.40
2018-10-21T15:55:52.446Z,60.50
2018-10-21T15:58:20.625Z,59.20
2018-10-21T16:00:48.785Z,59.30
2018-10-21T16:03:16.996Z,59.60
2018-10-21T16:05:45.205Z,60.60
2018-10-21T16:08:13.518Z,60.00
2018-10-21T16:10:41.696Z,60.90
2018-10-21T16:13:10.671Z,60.60
2018-10-21T16:15:38.946Z,60.60
2018-10-21T16:18:13.896Z,61.50
2018-10-21T16:20:42.129Z,61.20
2018-10-21T16:23:10.318Z,61.60
2018-10-21T16:25:38.651Z,61.80
2018-10-21T16:28:07.743Z,62.00
2018-10-21T16:30:35.884Z,63.50
2018-10-21T16:33:04.380Z,63.10
2018-10-21T16:35:32.555Z,64.20
2018-10-21T16:38:00.731Z,63.60
2018-10-21T16:40:28.982Z,64.50
2018-10-21T16:42:57.155Z,64.80
2018-10-21T16:45:25.322Z,65.20
2018-10-21T16:47:53.509Z,65.00
2018-10-21T16:50:21.699Z,65.90
2018-10-21T16:52:49.881Z,66.10
2018-10-21T16:55:18.260Z,66.30
2018-10-21T16:57:46.406Z,66.60
2018-10-21T17:00:17.881Z,66.50
2018-10-21T17:02:45.970Z,67.00
2018-10-21T17:05:14.220Z,67.10
2018-10-21T17:07:42.296Z,66.50
2018-10-21T17:10:11.391Z,68.00
2018-10-21T17:12:39.575Z,68.80
2018-10-21T17:15:09.087Z,68.70
2018-10-21T17:17:37.877Z,69.80
2018-10-21T17:20:08.897Z,69.60
2018-10-21T17:22:37.064Z,69.50
2018-10-21T17:25:05.800Z,70.00
2018-10-21T17:27:33.922Z,70.40
2018-10-21T17:30:02.152Z,71.00
2018-10-21T17:32:30.355Z,71.70
2018-10-21T17:34:58.489Z,71.50
2018-10-21T17:37:26.682Z,71.10
2018-10-21T17:39:54.885Z,71.70
2018-10-21T17:42:23.007Z,72.20
2018-10-21T17:44:51.190Z,72.30
2018-10-21T17:47:19.349Z,72.70
2018-10-21T17:49:47.530Z,72.90
2018-10-21T17:52:15.834Z,73.40
2018-10-21T17:54:43.867Z,73.30
2018-10-21T17:57:12.177Z,73.50
2018-10-21T17:59:40.336Z,74.00
2018-10-21T18:02:08.510Z,73.90
2018-10-21T18:04:36.671Z,74.20
2018-10-21T18:07:05.432Z,75.20
2018-10-21T18:09:33.575Z,76.10
2018-10-21T18:12:01.796Z,77.10
2018-10-21T18:14:30.077Z,77.00
2018-10-21T18:16:58.250Z,76.20
2018-10-21T18:19:26.408Z,76.80
2018-10-21T18:21:54.616Z,77.50
2018-10-21T18:24:22.827Z,77.70
2018-10-21T18:26:51.000Z,78.10
2018-10-21T18:29:19.155Z,78.10
2018-10-21T18:31:47.420Z,78.20
2018-10-21T18:34:15.702Z,79.10
2018-10-21T18:36:43.762Z,79.20
2018-10-21T18:39:11.910Z,79.40
2018-10-21T18:41:40.139Z,79.10
2018-10-21T18:44:08.886Z,79.60
2018-10-21T18:46:37.062Z,79.80
2018-10-21T18:49:05.248Z,79.50
2018-10-21T18:51:33.411Z,79.60
2018-10-21T18:54:01.555Z,79.80
2018-10-21T18:56:29.733Z,81.80
2018-10-21T18:58:57.863Z,82.00
2018-10-21T19:01:26.010Z,82.90
2018-10-21T19:03:54.205Z,82.30
2018-10-21T19:06:22.331Z,82.30
2018-10-21T19:08:50.458Z,82.70
2018-10-21T19:11:18.615Z,83.00
2018-10-21T19:13:46.795Z,83.20
2018-10-21T19:16:14.898Z,84.00
2018-10-21T19:18:43.014Z,84.10
2018-10-21T19:21:11.169Z,84.10
2018-10-21T19:23:39.340Z,84.70
2018-10-21T19:26:07.481Z,84.50
2018-10-21T19:28:35.621Z,85.50
2018-10-21T19:31:03.811Z,85.60
2018-10-21T19:33:31.916Z,86.00
2018-10-21T19:36:00.091Z,86.30
2018-10-21T19:38:28.226Z,86.40
2018-10-21T19:40:56.386Z,86.70
2018-10-21T19:43:24.613Z,87.00
2018-10-21T19:45:52.715Z,87.40
2018-10-21T19:48:20.877Z,87.80
2018-10-21T19:50:49.066Z,88.10
2018-10-21T19:53:17.229Z,88.20
2018-10-21T19:55:45.422Z,88.60
2018-10-21T19:58:13.670Z,88.60
2018-10-21T20:00:41.755Z,88.30
2018-10-21T20:03:09.926Z,88.50
2018-10-21T20:05:38.077Z,88.60
2018-10-21T20:08:06.276Z,88.80
2018-10-21T20:10:34.450Z,89.30
2018-10-21T20:13:02.651Z,89.80
2018-10-21T20:15:30.767Z,90.20
2018-10-21T20:17:58.928Z,90.30
2018-10-21T20:20:27.100Z,90.30
2018-10-21T20:22:55.239Z,90.50
2018-10-21T20:25:23.419Z,90.50
2018-10-21T20:27:51.641Z,90.70
2018-10-21T20:30:19.784Z,90.70
2018-10-21T20:32:48.019Z,90.90
2018-10-21T20:35:16.439Z,91.00
2018-10-21T20:37:44.606Z,91.10
2018-10-21T20:40:12.866Z,91.20
2018-10-21T20:42:40.970Z,91.20
2018-10-21T20:45:10.307Z,91.30
2018-10-21T20:47:38.463Z,91.40
2018-10-21T20:50:06.601Z,91.70
2018-10-21T20:52:34.774Z,91.60
2018-10-21T20:55:02.954Z,91.70
2018-10-21T20:57:31.133Z,92.00
2018-10-21T20:59:59.332Z,92.20
2018-10-21T21:02:27.470Z,92.30
2018-10-21T21:04:55.675Z,92.50
2018-10-21T21:07:23.830Z,92.60
2018-10-21T21:09:52.058Z,92.70
2018-10-21T21:12:20.210Z,92.70
2018-10-21T21:14:48.331Z,92.50
2018-10-21T21:17:16.526Z,92.60
2018-10-21T21:19:51.467Z,92.90
2018-10-21T21:22:19.757Z,93.10
2018-10-21T21:24:47.811Z,93.00
2018-10-21T21:27:16.046Z,93.20
2018-10-21T21:29:44.217Z,93.40
2018-10-21T21:32:12.458Z,93.40
2018-10-21T21:34:40.601Z,93.30
2018-10-21T21:37:08.802Z,93.50
2018-10-21T21:39:36.965Z,93.60
2018-10-21T21:42:05.390Z,93.80
2018-10-21T21:44:33.477Z,93.90
2018-10-21T21:47:01.634Z,94.10
2018-10-21T21:49:29.815Z,94.30
2018-10-21T21:51:57.996Z,94.40
2018-10-21T21:54:26.183Z,94.30
2018-10-21T21:56:54.512Z,94.20
2018-10-21T21:59:22.677Z,94.40
2018-10-21T22:01:50.837Z,94.40
2018-10-21T22:04:19.121Z,94.60
2018-10-21T22:06:47.190Z,94.90
2018-10-21T22:09:15.359Z,95.10
2018-10-21T22:11:43.520Z,95.20
2018-10-21T22:14:11.764Z,95.40
2018-10-21T22:16:39.968Z,95.60
2018-10-21T22:19:08.622Z,95.90
2018-10-21T22:21:37.595Z,96.00
2018-10-21T22:24:06.127Z,96.60
2018-10-21T22:26:34.301Z,97.00
2018-10-21T22:29:02.520Z,97.00
2018-10-21T22:31:30.697Z,97.00
2018-10-21T22:33:59.085Z,97.00
2018-10-21T22:36:27.332Z,97.00
2018-10-21T22:38:55.591Z,97.00
2018-10-21T22:41:23.771Z,97.00
2018-10-21T22:43:51.963Z,97.10
2018-10-21T22:46:20.213Z,97.00
2018-10-21T22:48:48.490Z,96.80
2018-10-21T22:51:16.672Z,96.70
2018-10-21T22:53:44.923Z,96.70
2018-10-21T22:56:13.084Z,96.80
2018-10-21T22:58:41.228Z,97.20
2018-10-21T23:01:09.440Z,97.20
2018-10-21T23:03:37.647Z,97.60
2018-10-21T23:06:05.831Z,98.00
2018-10-21T23:08:33.995Z,98.30
2018-10-21T23:11:02.149Z,98.00
2018-10-21T23:13:30.383Z,98.20
2018-10-21T23:15:58.603Z,98.10
2018-10-21T23:18:26.782Z,98.00
2018-10-21T23:20:55.010Z,98.10
2018-10-21T23:23:23.219Z,98.00
2018-10-21T23:25:51.426Z,97.80
2018-10-21T23:28:19.714Z,97.70
2018-10-21T23:30:47.824Z,97.70
2018-10-21T23:33:15.999Z,97.70
2018-10-21T23:35:44.168Z,97.90
2018-10-21T23:38:12.408Z,97.90
2018-10-21T23:40:40.658Z,97.60
2018-10-21T23:43:09.054Z,97.90
2018-10-21T23:45:37.194Z,98.20
2018-10-21T23:48:05.668Z,98.50
2018-10-21T23:50:33.815Z,98.60
2018-10-21T23:53:01.995Z,98.50
2018-10-21T23:55:30.215Z,98.60
2018-10-21T23:57:58.495Z,98.40
